sensor_id;sensor_type;location;lat;lon;timestamp;temperature;humidity
4697;DHT22;2362;50.780;0.292;2022-11-15T00:01:16;11.70;99.90
4697;DHT22;2362;50.780;0.292;2022-11-15T00:03:43;11.70;99.90
4697;DHT22;2362;50.780;0.292;2022-11-15T00:06:09;11.70;99.90
4697;DHT22;2362;50.780;0.292;2022-11-15T00:08:34;11.70;99.90
4697;DHT22;2362;50.780;0.292;2022-11-15T00:11:02;11.70;99.90
4697;DHT22;2362;50.780;0.292;2022-11-15T00:13:29;11.70;99.90
4697;DHT22;2362;50.780;0.292;2022-11-15T00:16:00;11.70;99.90
4697;DHT22;2362;50.780;0.292;2022-11-15T00:18:27;11.70;99.90
4697;DHT22;2362;50.780;0.292;2022-11-15T00:20:53;11.60;99.90
4697;DHT22;2362;50.780;0.292;2022-11-15T00:23:18;11.60;99.90
4697;DHT22;2362;50.780;0.292;2022-11-15T00:25:44;11.70;99.90
4697;DHT22;2362;50.780;0.292;2022-11-15T00:28:10;11.70;99.90
4697;DHT22;2362;50.780;0.292;2022-11-15T00:30:36;11.80;99.90
4697;DHT22;2362;50.780;0.292;2022-11-15T00:33:03;11.90;99.90
4697;DHT22;2362;50.780;0.292;2022-11-15T00:35:32;11.90;99.90
4697;DHT22;2362;50.780;0.292;2022-11-15T00:37:59;11.90;99.90
4697;DHT22;2362;50.780;0.292;2022-11-15T00:40:25;11.90;99.90
4697;DHT22;2362;50.780;0.292;2022-11-15T00:42:51;11.90;99.90
4697;DHT22;2362;50.780;0.292;2022-11-15T00:45:17;11.80;99.90
4697;DHT22;2362;50.780;0.292;2022-11-15T00:47:46;11.90;99.90
4697;DHT22;2362;50.780;0.292;2022-11-15T00:50:12;11.90;99.90
4697;DHT22;2362;50.780;0.292;2022-11-15T00:52:38;11.90;99.90
4697;DHT22;2362;50.780;0.292;2022-11-15T00:55:04;11.90;99.90
4697;DHT22;2362;50.780;0.292;2022-11-15T00:57:30;12.00;99.90
4697;DHT22;2362;50.780;0.292;2022-11-15T00:59:56;12.00;99.90
4697;DHT22;2362;50.780;0.292;2022-11-15T01:02:22;12.00;99.90
4697;DHT22;2362;50.780;0.292;2022-11-15T01:04:47;12.00;99.90
4697;DHT22;2362;50.780;0.292;2022-11-15T01:07:13;11.80;99.90
4697;DHT22;2362;50.780;0.292;2022-11-15T01:09:39;11.80;99.90
4697;DHT22;2362;50.780;0.292;2022-11-15T01:12:05;11.80;99.90
4697;DHT22;2362;50.780;0.292;2022-11-15T01:14:31;11.80;99.90
4697;DHT22;2362;50.780;0.292;2022-11-15T01:16:58;11.80;99.90
4697;DHT22;2362;50.780;0.292;2022-11-15T01:19:24;11.70;99.90
4697;DHT22;2362;50.780;0.292;2022-11-15T01:21:50;11.80;99.90
4697;DHT22;2362;50.780;0.292;2022-11-15T01:24:16;11.80;99.90
4697;DHT22;2362;50.780;0.292;2022-11-15T01:26:42;11.90;99.90
4697;DHT22;2362;50.780;0.292;2022-11-15T01:29:07;11.90;99.90
4697;DHT22;2362;50.780;0.292;2022-11-15T01:31:33;11.90;99.90
4697;DHT22;2362;50.780;0.292;2022-11-15T01:33:59;11.90;99.90
4697;DHT22;2362;50.780;0.292;2022-11-15T01:36:25;11.90;99.90
4697;DHT22;2362;50.780;0.292;2022-11-15T01:38:55;11.80;99.90
4697;DHT22;2362;50.780;0.292;2022-11-15T01:41:27;11.80;99.90
4697;DHT22;2362;50.780;0.292;2022-11-15T01:43:56;11.80;99.90
4697;DHT22;2362;50.780;0.292;2022-11-15T01:46:33;11.90;99.90
4697;DHT22;2362;50.780;0.292;2022-11-15T01:49:03;11.90;99.90
4697;DHT22;2362;50.780;0.292;2022-11-15T01:51:33;12.10;99.90
4697;DHT22;2362;50.780;0.292;2022-11-15T01:54:04;12.10;99.90
4697;DHT22;2362;50.780;0.292;2022-11-15T01:56:35;12.20;99.90
4697;DHT22;2362;50.780;0.292;2022-11-15T01:59:03;12.20;99.90
4697;DHT22;2362;50.780;0.292;2022-11-15T02:01:30;12.20;99.90
4697;DHT22;2362;50.780;0.292;2022-11-15T02:04:07;12.20;99.90
4697;DHT22;2362;50.780;0.292;2022-11-15T02:06:35;12.20;99.90
4697;DHT22;2362;50.780;0.292;2022-11-15T02:09:02;12.10;99.90
4697;DHT22;2362;50.780;0.292;2022-11-15T02:11:28;12.20;99.90
4697;DHT22;2362;50.780;0.292;2022-11-15T02:13:55;12.30;99.90
4697;DHT22;2362;50.780;0.292;2022-11-15T02:22:20;12.50;99.90
4697;DHT22;2362;50.780;0.292;2022-11-15T02:30:42;12.40;99.90
4697;DHT22;2362;50.780;0.292;2022-11-15T02:39:22;12.40;99.90
4697;DHT22;2362;50.780;0.292;2022-11-15T02:42:27;12.40;99.90
4697;DHT22;2362;50.780;0.292;2022-11-15T02:45:30;12.40;99.90
4697;DHT22;2362;50.780;0.292;2022-11-15T02:47:58;12.40;99.90
4697;DHT22;2362;50.780;0.292;2022-11-15T02:50:27;12.40;99.90
4697;DHT22;2362;50.780;0.292;2022-11-15T02:52:53;12.50;99.90
4697;DHT22;2362;50.780;0.292;2022-11-15T02:55:49;12.50;99.90
4697;DHT22;2362;50.780;0.292;2022-11-15T03:03:55;12.40;99.90
4697;DHT22;2362;50.780;0.292;2022-11-15T03:09:03;12.40;99.90
4697;DHT22;2362;50.780;0.292;2022-11-15T03:11:39;12.40;99.90
4697;DHT22;2362;50.780;0.292;2022-11-15T03:14:32;12.50;99.90
4697;DHT22;2362;50.780;0.292;2022-11-15T03:17:14;12.60;99.90
4697;DHT22;2362;50.780;0.292;2022-11-15T03:19:47;12.60;99.90
4697;DHT22;2362;50.780;0.292;2022-11-15T03:22:22;12.60;99.90
4697;DHT22;2362;50.780;0.292;2022-11-15T03:24:53;12.60;99.90
4697;DHT22;2362;50.780;0.292;2022-11-15T03:27:23;12.70;99.90
4697;DHT22;2362;50.780;0.292;2022-11-15T03:29:55;12.70;99.90
4697;DHT22;2362;50.780;0.292;2022-11-15T03:32:26;12.70;99.90
4697;DHT22;2362;50.780;0.292;2022-11-15T03:38:11;12.80;99.90
4697;DHT22;2362;50.780;0.292;2022-11-15T03:40:24;12.80;99.90
4697;DHT22;2362;50.780;0.292;2022-11-15T03:43:26;12.80;99.90
4697;DHT22;2362;50.780;0.292;2022-11-15T03:46:01;12.80;99.90
4697;DHT22;2362;50.780;0.292;2022-11-15T03:48:33;12.80;99.90
4697;DHT22;2362;50.780;0.292;2022-11-15T03:51:01;12.80;99.90
4697;DHT22;2362;50.780;0.292;2022-11-15T03:53:28;12.80;99.90
4697;DHT22;2362;50.780;0.292;2022-11-15T03:55:54;12.70;99.90
4697;DHT22;2362;50.780;0.292;2022-11-15T03:58:20;12.70;99.90
4697;DHT22;2362;50.780;0.292;2022-11-15T04:00:45;12.80;99.90
4697;DHT22;2362;50.780;0.292;2022-11-15T04:03:11;12.70;99.90
4697;DHT22;2362;50.780;0.292;2022-11-15T04:05:37;12.70;99.90
4697;DHT22;2362;50.780;0.292;2022-11-15T04:08:03;12.70;99.90
4697;DHT22;2362;50.780;0.292;2022-11-15T04:10:29;12.60;99.90
4697;DHT22;2362;50.780;0.292;2022-11-15T04:12:54;12.50;99.90
4697;DHT22;2362;50.780;0.292;2022-11-15T04:15:22;12.40;99.90
4697;DHT22;2362;50.780;0.292;2022-11-15T04:17:55;12.40;99.90
4697;DHT22;2362;50.780;0.292;2022-11-15T04:20:23;12.30;99.90
4697;DHT22;2362;50.780;0.292;2022-11-15T04:23:11;12.30;99.90
4697;DHT22;2362;50.780;0.292;2022-11-15T04:25:58;12.40;99.90
4697;DHT22;2362;50.780;0.292;2022-11-15T04:28:24;12.40;99.90
4697;DHT22;2362;50.780;0.292;2022-11-15T04:30:50;12.40;99.90
4697;DHT22;2362;50.780;0.292;2022-11-15T04:33:16;12.40;99.90
4697;DHT22;2362;50.780;0.292;2022-11-15T04:35:42;12.40;99.90
4697;DHT22;2362;50.780;0.292;2022-11-15T04:38:09;12.50;99.90
4697;DHT22;2362;50.780;0.292;2022-11-15T04:40:36;12.40;99.90
4697;DHT22;2362;50.780;0.292;2022-11-15T04:43:03;12.40;99.90
4697;DHT22;2362;50.780;0.292;2022-11-15T04:45:30;12.40;99.90
4697;DHT22;2362;50.780;0.292;2022-11-15T04:47:55;12.40;99.90
4697;DHT22;2362;50.780;0.292;2022-11-15T04:50:21;12.40;99.90
4697;DHT22;2362;50.780;0.292;2022-11-15T04:52:52;12.40;99.90
4697;DHT22;2362;50.780;0.292;2022-11-15T04:55:18;12.40;99.90
4697;DHT22;2362;50.780;0.292;2022-11-15T04:57:44;12.40;99.90
4697;DHT22;2362;50.780;0.292;2022-11-15T05:00:15;12.30;99.90
4697;DHT22;2362;50.780;0.292;2022-11-15T05:02:41;12.30;99.90
4697;DHT22;2362;50.780;0.292;2022-11-15T05:05:25;12.30;99.90
4697;DHT22;2362;50.780;0.292;2022-11-15T05:07:51;12.30;99.90
4697;DHT22;2362;50.780;0.292;2022-11-15T05:10:17;12.30;99.90
4697;DHT22;2362;50.780;0.292;2022-11-15T05:12:43;12.30;99.90
4697;DHT22;2362;50.780;0.292;2022-11-15T05:15:09;12.30;99.90
4697;DHT22;2362;50.780;0.292;2022-11-15T05:17:35;12.40;99.90
4697;DHT22;2362;50.780;0.292;2022-11-15T05:20:00;12.40;99.90
4697;DHT22;2362;50.780;0.292;2022-11-15T05:22:27;12.40;99.90
4697;DHT22;2362;50.780;0.292;2022-11-15T05:24:53;12.40;99.90
4697;DHT22;2362;50.780;0.292;2022-11-15T05:27:19;12.40;99.90
4697;DHT22;2362;50.780;0.292;2022-11-15T05:29:45;12.50;99.90
4697;DHT22;2362;50.780;0.292;2022-11-15T05:32:12;12.40;99.90
4697;DHT22;2362;50.780;0.292;2022-11-15T05:34:38;12.40;99.90
4697;DHT22;2362;50.780;0.292;2022-11-15T05:37:04;12.40;99.90
4697;DHT22;2362;50.780;0.292;2022-11-15T05:39:30;12.40;99.90
4697;DHT22;2362;50.780;0.292;2022-11-15T05:42:00;12.40;99.90
4697;DHT22;2362;50.780;0.292;2022-11-15T05:44:28;12.40;99.90
4697;DHT22;2362;50.780;0.292;2022-11-15T05:46:55;12.40;99.90
4697;DHT22;2362;50.780;0.292;2022-11-15T05:49:25;12.40;99.90
4697;DHT22;2362;50.780;0.292;2022-11-15T05:51:53;12.40;99.90
4697;DHT22;2362;50.780;0.292;2022-11-15T05:54:20;12.40;99.90
4697;DHT22;2362;50.780;0.292;2022-11-15T05:56:46;12.40;99.90
4697;DHT22;2362;50.780;0.292;2022-11-15T05:59:13;12.40;99.90
4697;DHT22;2362;50.780;0.292;2022-11-15T06:01:39;12.40;99.90
4697;DHT22;2362;50.780;0.292;2022-11-15T06:04:05;12.40;99.90
4697;DHT22;2362;50.780;0.292;2022-11-15T06:06:31;12.40;99.90
4697;DHT22;2362;50.780;0.292;2022-11-15T06:08:57;12.50;99.90
4697;DHT22;2362;50.780;0.292;2022-11-15T06:11:22;12.50;99.90
4697;DHT22;2362;50.780;0.292;2022-11-15T06:13:48;12.50;99.90
4697;DHT22;2362;50.780;0.292;2022-11-15T06:16:14;12.40;99.90
4697;DHT22;2362;50.780;0.292;2022-11-15T06:18:40;12.50;99.90
4697;DHT22;2362;50.780;0.292;2022-11-15T06:21:05;12.50;99.90
4697;DHT22;2362;50.780;0.292;2022-11-15T06:23:33;12.50;99.90
4697;DHT22;2362;50.780;0.292;2022-11-15T06:26:02;12.40;99.90
4697;DHT22;2362;50.780;0.292;2022-11-15T06:28:32;12.50;99.90
4697;DHT22;2362;50.780;0.292;2022-11-15T06:31:25;12.50;99.90
4697;DHT22;2362;50.780;0.292;2022-11-15T06:33:51;12.50;99.90
4697;DHT22;2362;50.780;0.292;2022-11-15T06:36:17;12.60;99.90
4697;DHT22;2362;50.780;0.292;2022-11-15T06:38:46;12.50;99.90
4697;DHT22;2362;50.780;0.292;2022-11-15T06:41:13;12.50;99.90
4697;DHT22;2362;50.780;0.292;2022-11-15T06:43:40;12.50;99.90
4697;DHT22;2362;50.780;0.292;2022-11-15T06:46:07;12.50;99.90
4697;DHT22;2362;50.780;0.292;2022-11-15T06:48:33;12.50;99.90
4697;DHT22;2362;50.780;0.292;2022-11-15T06:51:01;12.50;99.90
4697;DHT22;2362;50.780;0.292;2022-11-15T06:53:53;12.50;99.90
4697;DHT22;2362;50.780;0.292;2022-11-15T06:56:19;12.60;99.90
4697;DHT22;2362;50.780;0.292;2022-11-15T06:58:45;12.60;99.90
4697;DHT22;2362;50.780;0.292;2022-11-15T07:01:12;12.50;99.90
4697;DHT22;2362;50.780;0.292;2022-11-15T07:03:40;12.60;99.90
4697;DHT22;2362;50.780;0.292;2022-11-15T07:06:07;12.50;99.90
4697;DHT22;2362;50.780;0.292;2022-11-15T07:08:34;12.60;99.90
4697;DHT22;2362;50.780;0.292;2022-11-15T07:11:02;12.60;99.90
4697;DHT22;2362;50.780;0.292;2022-11-15T07:13:30;12.60;99.90
4697;DHT22;2362;50.780;0.292;2022-11-15T07:16:07;12.50;99.90
4697;DHT22;2362;50.780;0.292;2022-11-15T07:18:39;12.60;99.90
4697;DHT22;2362;50.780;0.292;2022-11-15T07:21:07;12.50;99.90
4697;DHT22;2362;50.780;0.292;2022-11-15T07:23:58;12.50;99.90
4697;DHT22;2362;50.780;0.292;2022-11-15T07:26:23;12.50;99.90
4697;DHT22;2362;50.780;0.292;2022-11-15T07:28:49;12.60;99.90
4697;DHT22;2362;50.780;0.292;2022-11-15T07:31:15;12.60;99.90
4697;DHT22;2362;50.780;0.292;2022-11-15T07:33:41;12.70;99.90
4697;DHT22;2362;50.780;0.292;2022-11-15T07:36:07;12.60;99.90
4697;DHT22;2362;50.780;0.292;2022-11-15T07:38:34;12.60;99.90
4697;DHT22;2362;50.780;0.292;2022-11-15T07:41:02;12.60;99.90
4697;DHT22;2362;50.780;0.292;2022-11-15T07:43:28;12.50;99.90
4697;DHT22;2362;50.780;0.292;2022-11-15T07:45:55;12.50;99.90
4697;DHT22;2362;50.780;0.292;2022-11-15T07:48:22;12.40;99.90
4697;DHT22;2362;50.780;0.292;2022-11-15T07:50:48;12.50;99.90
4697;DHT22;2362;50.780;0.292;2022-11-15T07:53:14;12.50;99.90
4697;DHT22;2362;50.780;0.292;2022-11-15T07:55:40;12.50;99.90
4697;DHT22;2362;50.780;0.292;2022-11-15T07:58:10;12.50;99.90
4697;DHT22;2362;50.780;0.292;2022-11-15T08:00:36;12.40;99.90
4697;DHT22;2362;50.780;0.292;2022-11-15T08:03:04;12.40;99.90
4697;DHT22;2362;50.780;0.292;2022-11-15T08:05:30;12.30;99.90
4697;DHT22;2362;50.780;0.292;2022-11-15T08:07:56;12.30;99.90
4697;DHT22;2362;50.780;0.292;2022-11-15T08:10:22;12.30;99.90
4697;DHT22;2362;50.780;0.292;2022-11-15T08:12:48;12.30;99.90
4697;DHT22;2362;50.780;0.292;2022-11-15T08:15:14;12.20;99.90
4697;DHT22;2362;50.780;0.292;2022-11-15T08:17:39;12.20;99.90
4697;DHT22;2362;50.780;0.292;2022-11-15T08:20:06;12.20;99.90
4697;DHT22;2362;50.780;0.292;2022-11-15T08:22:33;12.10;99.90
4697;DHT22;2362;50.780;0.292;2022-11-15T08:24:59;12.10;99.90
4697;DHT22;2362;50.780;0.292;2022-11-15T08:27:25;12.10;99.90
4697;DHT22;2362;50.780;0.292;2022-11-15T08:29:51;12.10;99.90
4697;DHT22;2362;50.780;0.292;2022-11-15T08:32:17;12.10;99.90
4697;DHT22;2362;50.780;0.292;2022-11-15T08:34:43;12.20;99.90
4697;DHT22;2362;50.780;0.292;2022-11-15T08:37:09;12.10;99.90
4697;DHT22;2362;50.780;0.292;2022-11-15T08:39:34;12.10;99.90
4697;DHT22;2362;50.780;0.292;2022-11-15T08:42:00;12.10;99.90
4697;DHT22;2362;50.780;0.292;2022-11-15T08:44:26;12.00;99.90
4697;DHT22;2362;50.780;0.292;2022-11-15T08:46:52;12.10;99.90
4697;DHT22;2362;50.780;0.292;2022-11-15T08:49:17;12.10;99.90
4697;DHT22;2362;50.780;0.292;2022-11-15T08:51:43;12.10;99.90
4697;DHT22;2362;50.780;0.292;2022-11-15T08:54:10;12.10;99.90
4697;DHT22;2362;50.780;0.292;2022-11-15T08:56:38;12.00;99.90
4697;DHT22;2362;50.780;0.292;2022-11-15T08:59:04;12.00;99.90
4697;DHT22;2362;50.780;0.292;2022-11-15T09:01:30;12.00;99.90
4697;DHT22;2362;50.780;0.292;2022-11-15T09:03:55;12.00;99.90
4697;DHT22;2362;50.780;0.292;2022-11-15T09:06:21;12.00;99.90
4697;DHT22;2362;50.780;0.292;2022-11-15T09:08:47;12.10;99.90
4697;DHT22;2362;50.780;0.292;2022-11-15T09:11:14;12.10;99.90
4697;DHT22;2362;50.780;0.292;2022-11-15T09:13:42;12.10;99.90
4697;DHT22;2362;50.780;0.292;2022-11-15T09:16:09;12.10;99.90
4697;DHT22;2362;50.780;0.292;2022-11-15T09:18:34;12.10;99.90
4697;DHT22;2362;50.780;0.292;2022-11-15T09:21:01;12.10;99.90
4697;DHT22;2362;50.780;0.292;2022-11-15T09:23:28;12.20;99.90
4697;DHT22;2362;50.780;0.292;2022-11-15T09:26:19;12.20;99.90
4697;DHT22;2362;50.780;0.292;2022-11-15T09:28:45;12.20;99.90
4697;DHT22;2362;50.780;0.292;2022-11-15T09:31:11;12.20;99.90
4697;DHT22;2362;50.780;0.292;2022-11-15T09:33:37;12.20;99.90
4697;DHT22;2362;50.780;0.292;2022-11-15T09:36:05;12.20;99.90
4697;DHT22;2362;50.780;0.292;2022-11-15T09:38:32;12.20;99.90
4697;DHT22;2362;50.780;0.292;2022-11-15T09:49:06;12.10;99.90
4697;DHT22;2362;50.780;0.292;2022-11-15T09:54:35;12.20;99.90
4697;DHT22;2362;50.780;0.292;2022-11-15T10:02:51;12.20;99.90
4697;DHT22;2362;50.780;0.292;2022-11-15T10:05:24;12.10;99.90
4697;DHT22;2362;50.780;0.292;2022-11-15T10:08:33;12.10;99.90
4697;DHT22;2362;50.780;0.292;2022-11-15T10:11:08;12.20;99.90
4697;DHT22;2362;50.780;0.292;2022-11-15T10:13:45;12.10;99.90
4697;DHT22;2362;50.780;0.292;2022-11-15T10:24:26;12.20;99.90
4697;DHT22;2362;50.780;0.292;2022-11-15T10:26:56;12.20;99.90
4697;DHT22;2362;50.780;0.292;2022-11-15T10:29:23;12.30;99.90
4697;DHT22;2362;50.780;0.292;2022-11-15T10:31:51;12.30;99.90
4697;DHT22;2362;50.780;0.292;2022-11-15T10:34:22;12.30;99.90
4697;DHT22;2362;50.780;0.292;2022-11-15T10:36:59;12.30;99.90
4697;DHT22;2362;50.780;0.292;2022-11-15T10:39:26;12.40;99.90
4697;DHT22;2362;50.780;0.292;2022-11-15T10:41:53;12.40;99.90
4697;DHT22;2362;50.780;0.292;2022-11-15T10:44:20;12.30;99.90
4697;DHT22;2362;50.780;0.292;2022-11-15T10:49:27;12.40;99.90
4697;DHT22;2362;50.780;0.292;2022-11-15T10:52:02;12.30;99.90
4697;DHT22;2362;50.780;0.292;2022-11-15T10:54:37;12.30;99.90
4697;DHT22;2362;50.780;0.292;2022-11-15T10:57:25;12.30;99.90
4697;DHT22;2362;50.780;0.292;2022-11-15T10:59:55;12.30;99.90
4697;DHT22;2362;50.780;0.292;2022-11-15T11:02:37;12.30;99.90
4697;DHT22;2362;50.780;0.292;2022-11-15T11:05:07;12.20;99.90
4697;DHT22;2362;50.780;0.292;2022-11-15T11:08:03;12.30;99.90
4697;DHT22;2362;50.780;0.292;2022-11-15T11:10:30;12.30;99.90
4697;DHT22;2362;50.780;0.292;2022-11-15T11:13:20;12.30;99.90
4697;DHT22;2362;50.780;0.292;2022-11-15T11:27:22;12.50;99.90
4697;DHT22;2362;50.780;0.292;2022-11-15T11:35:30;12.50;99.90
4697;DHT22;2362;50.780;0.292;2022-11-15T11:38:22;12.50;99.90
4697;DHT22;2362;50.780;0.292;2022-11-15T11:46:41;12.60;99.90
4697;DHT22;2362;50.780;0.292;2022-11-15T11:49:12;12.60;99.90
4697;DHT22;2362;50.780;0.292;2022-11-15T11:51:47;12.60;99.90
4697;DHT22;2362;50.780;0.292;2022-11-15T11:54:50;12.60;99.90
4697;DHT22;2362;50.780;0.292;2022-11-15T12:00:18;12.70;99.90
4697;DHT22;2362;50.780;0.292;2022-11-15T12:05:55;12.70;99.90
4697;DHT22;2362;50.780;0.292;2022-11-15T12:13:42;12.70;99.90
4697;DHT22;2362;50.780;0.292;2022-11-15T12:16:23;12.70;99.90
4697;DHT22;2362;50.780;0.292;2022-11-15T12:18:53;12.70;99.90
4697;DHT22;2362;50.780;0.292;2022-11-15T12:21:34;12.80;99.90
4697;DHT22;2362;50.780;0.292;2022-11-15T12:27:50;12.80;99.90
4697;DHT22;2362;50.780;0.292;2022-11-15T12:30:08;12.90;99.90
4697;DHT22;2362;50.780;0.292;2022-11-15T12:32:38;12.90;99.90
4697;DHT22;2362;50.780;0.292;2022-11-15T12:35:20;12.90;99.90
4697;DHT22;2362;50.780;0.292;2022-11-15T12:37:49;12.90;99.90
4697;DHT22;2362;50.780;0.292;2022-11-15T12:45:42;13.00;99.90
4697;DHT22;2362;50.780;0.292;2022-11-15T12:58:58;13.20;99.90
4697;DHT22;2362;50.780;0.292;2022-11-15T13:04:21;13.30;99.90
4697;DHT22;2362;50.780;0.292;2022-11-15T13:06:52;13.30;99.90
4697;DHT22;2362;50.780;0.292;2022-11-15T13:18:35;13.40;99.90
4697;DHT22;2362;50.780;0.292;2022-11-15T13:21:04;13.50;99.90
4697;DHT22;2362;50.780;0.292;2022-11-15T13:23:54;13.40;99.90
4697;DHT22;2362;50.780;0.292;2022-11-15T13:26:24;13.40;99.90
4697;DHT22;2362;50.780;0.292;2022-11-15T13:28:51;13.50;99.90
4697;DHT22;2362;50.780;0.292;2022-11-15T13:31:35;13.50;99.90
4697;DHT22;2362;50.780;0.292;2022-11-15T13:34:16;13.60;99.90
4697;DHT22;2362;50.780;0.292;2022-11-15T13:36:42;13.60;99.90
4697;DHT22;2362;50.780;0.292;2022-11-15T13:41:57;13.80;99.90
4697;DHT22;2362;50.780;0.292;2022-11-15T13:44:30;13.90;99.90
4697;DHT22;2362;50.780;0.292;2022-11-15T13:47:06;13.90;99.90
4697;DHT22;2362;50.780;0.292;2022-11-15T13:49:34;13.80;99.90
4697;DHT22;2362;50.780;0.292;2022-11-15T13:52:04;13.70;99.90
4697;DHT22;2362;50.780;0.292;2022-11-15T13:55:04;13.70;99.90
4697;DHT22;2362;50.780;0.292;2022-11-15T13:57:53;13.60;99.90
4697;DHT22;2362;50.780;0.292;2022-11-15T14:00:43;13.50;99.90
4697;DHT22;2362;50.780;0.292;2022-11-15T14:03:29;13.50;99.90
4697;DHT22;2362;50.780;0.292;2022-11-15T14:06:19;13.40;99.90
4697;DHT22;2362;50.780;0.292;2022-11-15T14:11:37;13.40;99.90
4697;DHT22;2362;50.780;0.292;2022-11-15T14:14:14;13.50;99.90
4697;DHT22;2362;50.780;0.292;2022-11-15T14:16:44;13.50;99.90
4697;DHT22;2362;50.780;0.292;2022-11-15T14:19:22;13.60;99.90
4697;DHT22;2362;50.780;0.292;2022-11-15T14:22:34;13.50;99.90
4697;DHT22;2362;50.780;0.292;2022-11-15T14:25:21;13.40;99.90
4697;DHT22;2362;50.780;0.292;2022-11-15T14:28:14;13.50;99.90
4697;DHT22;2362;50.780;0.292;2022-11-15T14:30:43;13.50;99.90
4697;DHT22;2362;50.780;0.292;2022-11-15T14:35:45;13.40;99.90
4697;DHT22;2362;50.780;0.292;2022-11-15T14:38:11;13.30;99.90
4697;DHT22;2362;50.780;0.292;2022-11-15T14:40:36;13.30;99.90
4697;DHT22;2362;50.780;0.292;2022-11-15T14:43:02;13.20;99.90
4697;DHT22;2362;50.780;0.292;2022-11-15T14:45:29;13.10;99.90
4697;DHT22;2362;50.780;0.292;2022-11-15T14:47:55;13.10;99.90
4697;DHT22;2362;50.780;0.292;2022-11-15T14:50:21;13.20;99.90
4697;DHT22;2362;50.780;0.292;2022-11-15T14:52:48;13.10;99.90
4697;DHT22;2362;50.780;0.292;2022-11-15T14:55:26;13.10;99.90
4697;DHT22;2362;50.780;0.292;2022-11-15T14:57:54;13.00;99.90
4697;DHT22;2362;50.780;0.292;2022-11-15T15:00:22;13.00;99.90
4697;DHT22;2362;50.780;0.292;2022-11-15T15:02:53;12.90;99.90
4697;DHT22;2362;50.780;0.292;2022-11-15T15:05:33;12.90;99.90
4697;DHT22;2362;50.780;0.292;2022-11-15T15:07:59;12.90;99.90
4697;DHT22;2362;50.780;0.292;2022-11-15T15:10:27;12.90;99.90
4697;DHT22;2362;50.780;0.292;2022-11-15T15:12:56;12.80;99.90
4697;DHT22;2362;50.780;0.292;2022-11-15T15:15:24;12.80;99.90
4697;DHT22;2362;50.780;0.292;2022-11-15T15:17:50;12.90;99.90
4697;DHT22;2362;50.780;0.292;2022-11-15T15:20:17;12.90;99.90
4697;DHT22;2362;50.780;0.292;2022-11-15T15:22:44;12.90;99.90
4697;DHT22;2362;50.780;0.292;2022-11-15T15:25:33;12.90;99.90
4697;DHT22;2362;50.780;0.292;2022-11-15T15:28:01;12.90;99.90
4697;DHT22;2362;50.780;0.292;2022-11-15T15:30:29;12.90;99.90
4697;DHT22;2362;50.780;0.292;2022-11-15T15:32:55;12.90;99.90
4697;DHT22;2362;50.780;0.292;2022-11-15T15:35:21;12.90;99.90
4697;DHT22;2362;50.780;0.292;2022-11-15T15:37:49;12.90;99.90
4697;DHT22;2362;50.780;0.292;2022-11-15T15:40:20;12.90;99.90
4697;DHT22;2362;50.780;0.292;2022-11-15T15:42:47;12.80;99.90
4697;DHT22;2362;50.780;0.292;2022-11-15T15:45:14;12.70;99.90
4697;DHT22;2362;50.780;0.292;2022-11-15T15:47:41;12.70;99.90
4697;DHT22;2362;50.780;0.292;2022-11-15T15:50:33;12.60;99.90
4697;DHT22;2362;50.780;0.292;2022-11-15T15:53:02;12.50;99.90
4697;DHT22;2362;50.780;0.292;2022-11-15T15:55:28;12.40;99.90
4697;DHT22;2362;50.780;0.292;2022-11-15T15:57:55;12.50;99.90
4697;DHT22;2362;50.780;0.292;2022-11-15T16:00:22;12.50;99.90
4697;DHT22;2362;50.780;0.292;2022-11-15T16:02:49;12.50;99.90
4697;DHT22;2362;50.780;0.292;2022-11-15T16:05:15;12.60;99.90
4697;DHT22;2362;50.780;0.292;2022-11-15T16:07:41;12.50;99.90
4697;DHT22;2362;50.780;0.292;2022-11-15T16:12:43;12.30;99.90
4697;DHT22;2362;50.780;0.292;2022-11-15T16:15:09;12.20;99.90
4697;DHT22;2362;50.780;0.292;2022-11-15T16:17:38;12.10;99.90
4697;DHT22;2362;50.780;0.292;2022-11-15T16:20:05;12.10;99.90
4697;DHT22;2362;50.780;0.292;2022-11-15T16:22:31;12.20;99.90
4697;DHT22;2362;50.780;0.292;2022-11-15T16:24:57;12.20;99.90
4697;DHT22;2362;50.780;0.292;2022-11-15T16:27:23;12.10;99.90
4697;DHT22;2362;50.780;0.292;2022-11-15T16:29:49;12.10;99.90
4697;DHT22;2362;50.780;0.292;2022-11-15T16:32:15;12.10;99.90
4697;DHT22;2362;50.780;0.292;2022-11-15T16:34:41;12.10;99.90
4697;DHT22;2362;50.780;0.292;2022-11-15T16:37:23;12.10;99.90
4697;DHT22;2362;50.780;0.292;2022-11-15T16:39:50;12.10;99.90
4697;DHT22;2362;50.780;0.292;2022-11-15T16:42:17;12.00;99.90
4697;DHT22;2362;50.780;0.292;2022-11-15T16:44:42;12.00;99.90
4697;DHT22;2362;50.780;0.292;2022-11-15T16:47:18;12.00;99.90
4697;DHT22;2362;50.780;0.292;2022-11-15T16:49:45;12.10;99.90
4697;DHT22;2362;50.780;0.292;2022-11-15T16:52:11;12.20;99.90
4697;DHT22;2362;50.780;0.292;2022-11-15T16:54:37;12.20;99.90
4697;DHT22;2362;50.780;0.292;2022-11-15T16:57:02;12.20;99.90
4697;DHT22;2362;50.780;0.292;2022-11-15T16:59:28;12.30;99.90
4697;DHT22;2362;50.780;0.292;2022-11-15T17:01:56;12.40;99.90
4697;DHT22;2362;50.780;0.292;2022-11-15T17:04:22;12.50;99.90
4697;DHT22;2362;50.780;0.292;2022-11-15T17:06:49;12.50;99.90
4697;DHT22;2362;50.780;0.292;2022-11-15T17:09:22;12.60;99.90
4697;DHT22;2362;50.780;0.292;2022-11-15T17:11:51;12.70;99.90
4697;DHT22;2362;50.780;0.292;2022-11-15T17:14:17;12.80;99.90
4697;DHT22;2362;50.780;0.292;2022-11-15T17:16:43;12.80;99.90
4697;DHT22;2362;50.780;0.292;2022-11-15T17:19:14;12.80;99.90
4697;DHT22;2362;50.780;0.292;2022-11-15T17:21:41;12.50;99.90
4697;DHT22;2362;50.780;0.292;2022-11-15T17:24:07;12.00;99.90
4697;DHT22;2362;50.780;0.292;2022-11-15T17:26:34;11.50;99.90
4697;DHT22;2362;50.780;0.292;2022-11-15T17:29:00;11.30;99.90
4697;DHT22;2362;50.780;0.292;2022-11-15T17:31:26;11.20;99.90
4697;DHT22;2362;50.780;0.292;2022-11-15T17:33:54;11.10;99.90
4697;DHT22;2362;50.780;0.292;2022-11-15T17:36:20;11.10;99.90
4697;DHT22;2362;50.780;0.292;2022-11-15T17:38:47;11.00;99.90
4697;DHT22;2362;50.780;0.292;2022-11-15T17:41:17;11.00;99.90
4697;DHT22;2362;50.780;0.292;2022-11-15T17:43:46;11.00;99.90
4697;DHT22;2362;50.780;0.292;2022-11-15T17:46:14;11.00;99.90
4697;DHT22;2362;50.780;0.292;2022-11-15T17:48:41;11.00;99.90
4697;DHT22;2362;50.780;0.292;2022-11-15T17:51:11;11.00;99.90
4697;DHT22;2362;50.780;0.292;2022-11-15T17:53:40;11.00;99.90
4697;DHT22;2362;50.780;0.292;2022-11-15T17:56:14;11.10;99.90
4697;DHT22;2362;50.780;0.292;2022-11-15T17:58:40;11.10;99.90
4697;DHT22;2362;50.780;0.292;2022-11-15T18:01:24;11.10;99.90
4697;DHT22;2362;50.780;0.292;2022-11-15T18:03:50;11.10;99.90
4697;DHT22;2362;50.780;0.292;2022-11-15T18:06:18;11.00;99.90
4697;DHT22;2362;50.780;0.292;2022-11-15T18:08:48;11.00;99.90
4697;DHT22;2362;50.780;0.292;2022-11-15T18:11:19;11.00;99.90
4697;DHT22;2362;50.780;0.292;2022-11-15T18:13:48;11.00;99.90
4697;DHT22;2362;50.780;0.292;2022-11-15T18:16:16;11.00;99.90
4697;DHT22;2362;50.780;0.292;2022-11-15T18:18:43;11.00;99.90
4697;DHT22;2362;50.780;0.292;2022-11-15T18:21:14;11.10;99.90
4697;DHT22;2362;50.780;0.292;2022-11-15T18:23:42;11.10;99.90
4697;DHT22;2362;50.780;0.292;2022-11-15T18:26:10;11.20;99.90
4697;DHT22;2362;50.780;0.292;2022-11-15T18:28:40;11.20;99.90
4697;DHT22;2362;50.780;0.292;2022-11-15T18:31:17;11.30;99.90
4697;DHT22;2362;50.780;0.292;2022-11-15T18:33:43;11.20;99.90